Time;durP1;ratioP1;P1;durP2;ratioP2;P2;SDS_P1;SDS_P2;PMS_P1;PMS_P2;Temp;Humidity;BMP_temperature;BMP_pressure;BME280_temperature;BME280_humidity;BME280_pressure;Samples;Min_cycle;Max_cycle;Signal;HPM_P1;HPM_P2
2023/07/04 00:01:04;;;;;;;17.30;5.80;;;;;;;17.03;67.06;99956.89;109954;1275;22164;-80
2023/07/04 00:03:53;;;;;;;15.00;4.30;;;;;;;16.98;67.23;99957.96;109962;1279;22854;-80
2023/07/04 00:06:29;;;;;;;17.90;5.30;;;;;;;16.93;67.44;99961.08;107946;1278;22555;-79
2023/07/04 00:09:02;;;;;;;17.20;5.10;;;;;;;16.88;67.86;99960.78;108009;1283;22576;-79
2023/07/04 00:11:33;;;;;;;21.00;5.50;;;;;;;16.83;67.96;99960.06;107948;1275;22584;-80
2023/07/04 00:14:04;;;;;;;17.80;4.40;;;;;;;16.78;68.29;99955.83;108168;1279;24199;-79
2023/07/04 00:16:36;;;;;;;18.90;5.00;;;;;;;16.75;68.40;99957.65;108279;1275;23983;-79
2023/07/04 00:19:06;;;;;;;16.00;4.60;;;;;;;16.71;68.67;99960.35;108142;1282;22540;-79
2023/07/04 00:21:38;;;;;;;21.00;4.30;;;;;;;16.67;68.78;99962.28;108052;1274;22524;-79
2023/07/04 00:24:11;;;;;;;20.90;5.10;;;;;;;16.62;68.91;99962.38;107949;1279;23422;-79
2023/07/04 00:26:42;;;;;;;19.70;4.60;;;;;;;16.56;69.09;99965.93;107884;1283;22724;-79
2023/07/04 00:29:13;;;;;;;20.30;5.60;;;;;;;16.51;69.19;99965.83;107864;1275;22547;-80
2023/07/04 00:31:45;;;;;;;15.60;5.70;;;;;;;16.47;69.26;99966.29;107901;1282;25356;-79
2023/07/04 00:34:15;;;;;;;17.20;4.30;;;;;;;16.44;69.49;99969.70;107955;1283;22549;-80
2023/07/04 00:36:46;;;;;;;20.80;5.40;;;;;;;16.40;69.60;99970.16;107949;1275;22588;-79
2023/07/04 00:39:17;;;;;;;20.80;4.70;;;;;;;16.38;69.73;99970.37;108018;1275;22501;-80
2023/07/04 00:41:49;;;;;;;21.70;5.00;;;;;;;16.37;69.90;99972.69;107936;1274;22662;-79
2023/07/04 00:44:24;;;;;;;22.40;5.50;;;;;;;16.34;70.08;99973.94;108000;1275;23483;-79
2023/07/04 00:47:06;;;;;;;19.10;4.60;;;;;;;16.32;70.37;99972.98;108030;1275;22600;-79
2023/07/04 00:49:43;;;;;;;21.00;5.40;;;;;;;16.29;70.57;99973.27;108010;1281;22538;-79
2023/07/04 00:52:23;;;;;;;20.00;5.50;;;;;;;16.24;70.74;99974.09;108022;1282;22607;-79
2023/07/04 00:54:57;;;;;;;16.50;3.90;;;;;;;16.18;70.65;99976.23;107301;1281;25103;-79
2023/07/04 00:57:31;;;;;;;14.30;4.50;;;;;;;16.11;71.15;99975.61;107438;1271;22962;-80
2023/07/04 01:00:14;;;;;;;14.10;4.30;;;;;;;16.04;71.07;99976.70;107825;1282;25230;-79
2023/07/04 01:02:48;;;;;;;15.70;4.90;;;;;;;15.97;71.29;99973.27;109955;1278;22164;-78
2023/07/04 01:05:24;;;;;;;19.30;4.30;;;;;;;15.88;71.42;99970.88;109943;1282;22188;-78
2023/07/04 01:08:02;;;;;;;18.40;4.10;;;;;;;15.82;71.65;99970.14;109833;1274;22213;-78
2023/07/04 01:10:37;;;;;;;17.50;5.20;;;;;;;15.78;71.90;99969.50;109950;1275;22385;-78
2023/07/04 01:13:28;;;;;;;22.80;5.50;;;;;;;15.77;72.15;99966.64;109935;1282;22240;-78
2023/07/04 01:15:59;;;;;;;19.30;5.20;;;;;;;15.76;72.30;99972.84;109897;1282;22202;-78
2023/07/04 01:18:30;;;;;;;20.50;5.60;;;;;;;15.74;72.52;99973.77;109931;1275;22188;-78
2023/07/04 01:21:05;;;;;;;18.60;5.10;;;;;;;15.72;72.73;99973.64;109968;1281;22156;-78
2023/07/04 01:23:52;;;;;;;18.00;6.10;;;;;;;15.70;72.73;99972.06;109499;1283;22523;-77
2023/07/04 01:26:30;;;;;;;19.30;5.80;;;;;;;15.68;72.75;99980.52;107409;1276;22530;-78
2023/07/04 01:29:03;;;;;;;18.70;6.50;;;;;;;15.67;72.87;99976.08;109927;1281;22154;-78
2023/07/04 01:31:35;;;;;;;18.00;6.10;;;;;;;15.65;73.15;99975.93;108286;1279;22568;-77
2023/07/04 01:34:09;;;;;;;17.00;6.10;;;;;;;15.64;73.07;99975.67;109186;1282;24356;-77
2023/07/04 01:36:43;;;;;;;17.30;5.30;;;;;;;15.66;73.11;99979.66;107502;1281;25427;-77
2023/07/04 01:39:16;;;;;;;21.20;5.40;;;;;;;15.66;73.31;99984.17;107490;1281;23463;-77
2023/07/04 01:41:47;;;;;;;15.50;4.90;;;;;;;15.65;73.61;99984.88;107482;1282;25295;-77
2023/07/04 01:44:18;;;;;;;21.20;6.90;;;;;;;15.62;73.77;99986.73;107349;1275;23924;-77
2023/07/04 01:46:49;;;;;;;16.90;5.40;;;;;;;15.61;73.93;99983.98;107445;1283;22597;-77
2023/07/04 01:49:20;;;;;;;21.90;5.40;;;;;;;15.59;74.11;99985.73;107420;1281;22530;-77
2023/07/04 01:51:51;;;;;;;16.90;5.80;;;;;;;15.56;74.31;99983.70;107453;1276;25148;-77
2023/07/04 01:54:22;;;;;;;20.50;5.20;;;;;;;15.52;74.29;99985.47;107398;1283;22527;-78
2023/07/04 01:56:53;;;;;;;22.90;6.00;;;;;;;15.49;74.53;99982.38;107363;1283;24308;-77
2023/07/04 01:59:24;;;;;;;15.60;5.30;;;;;;;15.45;74.59;99976.80;107404;1282;22517;-77
2023/07/04 02:01:55;;;;;;;20.30;5.00;;;;;;;15.40;74.57;99975.83;107429;1283;27414;-77
2023/07/04 02:04:26;;;;;;;21.40;6.00;;;;;;;15.34;74.53;99982.45;107480;1281;22553;-77
2023/07/04 02:06:57;;;;;;;21.10;5.40;;;;;;;15.29;74.80;99981.81;107420;1281;25567;-77
2023/07/04 02:09:28;;;;;;;21.10;5.10;;;;;;;15.25;74.71;99977.21;107426;1275;22528;-77
2023/07/04 02:11:59;;;;;;;20.00;4.70;;;;;;;15.20;74.77;99975.52;109953;1282;23029;-78
2023/07/04 02:14:30;;;;;;;17.10;4.70;;;;;;;15.16;74.55;99975.25;109960;1275;22314;-78
2023/07/04 02:17:01;;;;;;;15.00;4.80;;;;;;;15.12;74.71;99976.45;109917;1276;22336;-78
2023/07/04 02:19:32;;;;;;;14.60;4.50;;;;;;;15.07;74.97;99973.65;109936;1283;22319;-78
2023/07/04 02:22:03;;;;;;;20.70;5.30;;;;;;;15.04;74.97;99972.95;109955;1280;22208;-78
2023/07/04 02:24:34;;;;;;;18.50;4.80;;;;;;;15.01;75.02;99972.77;109897;1275;22387;-78
2023/07/04 02:27:05;;;;;;;21.50;5.70;;;;;;;14.98;75.14;99974.83;109940;1281;22225;-77
2023/07/04 02:29:36;;;;;;;16.50;5.30;;;;;;;14.95;75.23;99979.98;109960;1283;22390;-78
2023/07/04 02:32:08;;;;;;;28.70;5.60;;;;;;;14.91;75.45;99979.95;109930;1283;22846;-79
2023/07/04 02:34:38;;;;;;;16.90;5.30;;;;;;;14.89;75.47;99986.34;109944;1278;22231;-78
2023/07/04 02:37:10;;;;;;;18.30;4.90;;;;;;;14.86;75.44;99983.59;108122;1276;23261;-77
2023/07/04 02:39:42;;;;;;;20.90;5.80;;;;;;;14.83;75.42;99980.13;107327;1275;22545;-77
2023/07/04 02:42:13;;;;;;;19.90;5.20;;;;;;;14.80;75.45;99978.24;107301;1279;22841;-77
2023/07/04 02:44:44;;;;;;;17.00;4.60;;;;;;;14.76;75.41;99977.69;107214;1282;22708;-77
2023/07/04 02:47:15;;;;;;;18.30;4.70;;;;;;;14.70;75.70;99983.31;107255;1282;22554;-77
2023/07/04 02:49:46;;;;;;;20.60;5.30;;;;;;;14.65;75.90;99981.80;107261;1281;22547;-77
2023/07/04 02:52:17;;;;;;;18.40;4.90;;;;;;;14.58;75.95;99979.15;107303;1283;22547;-78
2023/07/04 02:54:48;;;;;;;19.50;5.30;;;;;;;14.52;75.93;99979.67;107256;1281;22534;-76
2023/07/04 02:57:19;;;;;;;17.50;5.30;;;;;;;14.46;76.34;99974.11;107196;1275;22536;-77
2023/07/04 02:59:49;;;;;;;25.30;6.10;;;;;;;14.40;76.38;99976.55;107276;1283;22582;-76
2023/07/04 03:02:21;;;;;;;13.90;4.30;;;;;;;14.35;76.58;99971.95;107246;1276;22660;-76
2023/07/04 03:04:52;;;;;;;17.40;5.00;;;;;;;14.30;76.58;99977.27;107306;1279;24230;-77
2023/07/04 03:07:23;;;;;;;17.60;4.60;;;;;;;14.24;76.63;99971.48;107347;1282;22523;-78
2023/07/04 03:09:54;;;;;;;20.00;5.80;;;;;;;14.18;76.48;99971.44;107313;1281;22546;-76
2023/07/04 03:12:24;;;;;;;18.50;5.10;;;;;;;14.12;76.49;99972.08;107245;1276;25496;-76
2023/07/04 03:14:55;;;;;;;16.30;5.20;;;;;;;14.07;76.53;99970.66;107229;1283;22483;-76
2023/07/04 03:17:26;;;;;;;16.40;5.10;;;;;;;14.02;76.64;99970.45;107286;1282;22637;-76
2023/07/04 03:19:56;;;;;;;20.90;6.10;;;;;;;13.97;76.88;99968.82;107260;1275;22651;-76
2023/07/04 03:22:27;;;;;;;18.50;4.70;;;;;;;13.93;77.21;99971.66;107296;1281;22700;-76
2023/07/04 03:24:58;;;;;;;18.60;5.50;;;;;;;13.91;77.56;99969.31;107288;1283;24644;-76
2023/07/04 03:27:29;;;;;;;16.90;5.10;;;;;;;13.89;77.74;99967.48;107259;1277;25133;-76
2023/07/04 03:30:00;;;;;;;20.70;5.60;;;;;;;13.89;77.94;99971.10;107254;1283;22961;-77
2023/07/04 03:32:31;;;;;;;21.80;4.90;;;;;;;13.89;78.19;99969.98;107258;1283;22563;-76
2023/07/04 03:35:03;;;;;;;24.50;6.10;;;;;;;13.90;78.54;99973.55;107279;1283;22490;-77
2023/07/04 03:37:36;;;;;;;20.90;5.60;;;;;;;13.90;78.68;99980.49;107285;1282;22528;-77
2023/07/04 03:40:10;;;;;;;18.60;5.00;;;;;;;13.92;78.91;99979.42;107265;1272;23467;-76
2023/07/04 03:42:42;;;;;;;23.30;6.80;;;;;;;13.92;79.08;99982.70;109935;1275;23241;-78
2023/07/04 03:48:04;;;;;;;19.40;5.60;;;;;;;13.96;79.53;99983.62;107693;1283;22589;-77
2023/07/04 03:50:35;;;;;;;21.10;6.10;;;;;;;13.97;79.79;99979.79;106893;1283;22518;-77
2023/07/04 03:53:05;;;;;;;18.20;5.90;;;;;;;14.00;79.80;99978.42;106825;1280;22491;-76
2023/07/04 03:55:36;;;;;;;22.70;6.00;;;;;;;14.04;79.89;99977.05;107334;1282;22513;-77
2023/07/04 03:58:07;;;;;;;18.80;5.60;;;;;;;14.08;80.17;99980.66;107327;1271;24261;-76
2023/07/04 04:00:38;;;;;;;22.40;5.70;;;;;;;14.12;80.21;99984.90;107368;1279;25300;-77
2023/07/04 04:03:08;;;;;;;20.10;5.60;;;;;;;14.17;80.14;99991.23;107212;1281;22765;-76
2023/07/04 04:05:39;;;;;;;20.20;5.80;;;;;;;14.21;80.04;99983.95;107336;1281;25296;-77
2023/07/04 04:08:10;;;;;;;20.10;5.10;;;;;;;14.29;80.17;99984.62;107395;1281;23843;-77
2023/07/04 04:10:41;;;;;;;20.10;4.50;;;;;;;14.36;80.10;99983.72;107571;1283;24209;-78
2023/07/04 04:13:12;;;;;;;19.10;4.90;;;;;;;14.43;80.34;99987.33;107769;1273;22522;-78
2023/07/04 04:15:44;;;;;;;22.60;5.70;;;;;;;14.51;80.08;99980.54;107365;1280;22577;-78
2023/07/04 04:18:14;;;;;;;20.60;5.90;;;;;;;14.60;80.20;99982.22;107634;1278;25335;-79
2023/07/04 04:20:45;;;;;;;20.50;5.30;;;;;;;14.68;80.40;99991.55;107586;1282;22554;-77
2023/07/04 04:23:17;;;;;;;18.10;4.60;;;;;;;14.77;80.32;99991.48;107893;1281;22546;-78
2023/07/04 04:25:48;;;;;;;17.10;5.20;;;;;;;14.85;80.24;99990.54;109963;1283;22215;-78
2023/07/04 04:28:19;;;;;;;24.80;5.40;;;;;;;14.91;80.15;99997.63;109896;1275;22237;-78
2023/07/04 04:30:49;;;;;;;25.20;4.40;;;;;;;14.99;80.07;100001.59;109916;1277;22281;-78
2023/07/04 04:33:20;;;;;;;17.50;3.70;;;;;;;15.09;79.98;100002.02;109991;1275;22141;-79
2023/07/04 04:35:51;;;;;;;20.10;4.40;;;;;;;15.19;79.78;100000.92;109952;1281;22135;-79
2023/07/04 04:38:21;;;;;;;18.30;4.50;;;;;;;15.28;79.74;100000.94;109880;1277;22128;-80
2023/07/04 04:41:02;;;;;;;19.60;4.50;;;;;;;15.37;79.52;100004.48;109909;1275;22156;-79
2023/07/04 04:43:33;;;;;;;18.80;4.90;;;;;;;15.48;79.65;100001.55;108707;1276;22548;-79
2023/07/04 04:46:05;;;;;;;18.20;4.20;;;;;;;15.60;79.71;99999.38;107570;1279;22896;-79
2023/07/04 04:48:36;;;;;;;16.80;4.40;;;;;;;15.70;79.54;99994.31;107879;1277;22479;-79
2023/07/04 04:51:13;;;;;;;19.30;4.60;;;;;;;15.80;79.41;99992.12;107748;1277;22550;-82
2023/07/04 04:53:48;;;;;;;17.40;4.00;;;;;;;15.90;79.12;99989.99;107979;1283;22510;-82
2023/07/04 04:56:19;;;;;;;19.60;4.60;;;;;;;16.00;78.84;99992.75;108094;1282;25464;-82
2023/07/04 04:58:50;;;;;;;15.60;4.10;;;;;;;16.08;78.57;99991.98;107972;1272;22498;-82
2023/07/04 05:01:24;;;;;;;23.00;4.40;;;;;;;16.17;78.58;99989.14;107995;1282;23324;-82
2023/07/04 05:03:56;;;;;;;18.50;3.60;;;;;;;16.28;78.69;99992.19;108114;1276;22595;-81
2023/07/04 05:06:28;;;;;;;22.70;4.70;;;;;;;16.37;77.94;100001.52;108029;1275;22538;-82
2023/07/04 05:08:59;;;;;;;16.00;4.00;;;;;;;16.47;78.08;99999.05;108039;1283;22541;-82
2023/07/04 05:11:31;;;;;;;19.70;4.10;;;;;;;16.61;77.88;99996.28;108094;1277;22547;-81
2023/07/04 05:14:04;;;;;;;18.10;3.70;;;;;;;16.70;77.35;100000.28;108119;1276;22578;-82
2023/07/04 05:16:35;;;;;;;20.70;4.20;;;;;;;16.81;77.40;100004.88;108069;1282;22546;-82
2023/07/04 05:19:06;;;;;;;17.60;4.30;;;;;;;16.92;77.40;100003.84;107979;1276;22542;-82
2023/07/04 05:21:38;;;;;;;24.70;5.40;;;;;;;17.05;77.21;100007.10;107938;1279;22532;-82
2023/07/04 05:24:09;;;;;;;23.40;4.60;;;;;;;17.17;77.05;100007.74;107912;1280;22536;-82
2023/07/04 05:26:40;;;;;;;22.60;4.70;;;;;;;17.29;76.69;100008.11;103991;1282;5391231;-82
2023/07/04 05:29:12;;;;;;;13.80;2.80;;;;;;;17.42;76.81;100008.25;107953;1277;24254;-82
2023/07/04 05:31:43;;;;;;;21.00;3.50;;;;;;;17.55;75.95;100013.41;108017;1277;22527;-82
2023/07/04 05:34:14;;;;;;;16.30;3.40;;;;;;;17.66;75.33;100013.25;108040;1277;22543;-82
2023/07/04 05:36:46;;;;;;;20.00;4.70;;;;;;;17.76;75.29;100012.92;107890;1283;22592;-82
2023/07/04 05:39:17;;;;;;;15.80;3.70;;;;;;;17.89;75.18;100015.09;107970;1276;24307;-83
2023/07/04 05:41:49;;;;;;;17.80;3.70;;;;;;;18.03;75.10;100020.44;107864;1283;22610;-82
2023/07/04 05:44:21;;;;;;;15.20;3.60;;;;;;;18.15;74.80;100019.30;107885;1279;23373;-82
2023/07/04 05:46:56;;;;;;;20.60;2.90;;;;;;;18.26;74.42;100024.88;107908;1277;22628;-82
2023/07/04 05:49:26;;;;;;;14.60;3.50;;;;;;;18.35;73.92;100025.19;107979;1282;23038;-82
2023/07/04 05:51:58;;;;;;;17.40;3.20;;;;;;;18.44;73.94;100020.06;107942;1283;25381;-82
2023/07/04 05:54:29;;;;;;;20.10;3.50;;;;;;;18.55;73.60;100023.84;108000;1276;22516;-82
2023/07/04 05:57:00;;;;;;;20.60;4.10;;;;;;;18.65;73.40;100026.38;108027;1282;22570;-83
2023/07/04 05:59:31;;;;;;;20.30;3.10;;;;;;;18.76;73.01;100024.79;107976;1282;22516;-83
2023/07/04 06:02:02;;;;;;;15.30;3.20;;;;;;;18.87;72.60;100025.15;107954;1277;22560;-82
2023/07/04 06:04:33;;;;;;;16.60;3.80;;;;;;;18.96;72.29;100028.28;107940;1279;22568;-83
2023/07/04 06:07:04;;;;;;;17.80;3.50;;;;;;;19.05;71.58;100031.23;108000;1283;22736;-83
2023/07/04 06:09:35;;;;;;;11.20;3.00;;;;;;;19.12;71.72;100031.82;107944;1280;22632;-82
2023/07/04 06:12:08;;;;;;;16.60;3.80;;;;;;;19.21;71.52;100030.67;108112;1276;22572;-82
2023/07/04 06:14:39;;;;;;;17.20;4.00;;;;;;;19.33;71.20;100031.39;107874;1282;23383;-82
2023/07/04 06:17:10;;;;;;;11.70;3.20;;;;;;;19.43;70.87;100027.75;108380;1272;22580;-82
2023/07/04 06:19:41;;;;;;;12.50;2.60;;;;;;;19.57;70.80;100029.38;108017;1277;22531;-83
2023/07/04 06:22:12;;;;;;;18.10;3.30;;;;;;;19.69;70.30;100034.52;108061;1279;22485;-83
2023/07/04 06:24:46;;;;;;;13.20;3.00;;;;;;;19.80;70.38;100035.09;107968;1280;22625;-83
2023/07/04 06:27:17;;;;;;;15.90;3.50;;;;;;;19.93;69.72;100035.94;107856;1283;23394;-83
2023/07/04 06:29:53;;;;;;;16.80;2.80;;;;;;;20.03;69.45;100037.77;107941;1283;22550;-83
2023/07/04 06:32:24;;;;;;;17.20;3.80;;;;;;;20.12;68.93;100036.80;107931;1277;22593;-83
2023/07/04 06:34:55;;;;;;;15.00;3.20;;;;;;;20.21;68.98;100041.83;107907;1280;22563;-83
2023/07/04 06:37:27;;;;;;;15.80;3.20;;;;;;;20.32;68.79;100042.10;107977;1279;22561;-83
2023/07/04 06:39:58;;;;;;;20.30;2.90;;;;;;;20.42;68.28;100045.42;107990;1279;25428;-83
2023/07/04 06:42:31;;;;;;;16.80;2.90;;;;;;;20.50;67.41;100045.50;108043;1276;25305;-83
2023/07/04 06:45:01;;;;;;;15.30;2.80;;;;;;;20.60;67.16;100037.58;107932;1283;22552;-83
2023/07/04 06:47:32;;;;;;;17.30;3.00;;;;;;;20.71;66.89;100039.14;107960;1282;22710;-83
2023/07/04 06:50:04;;;;;;;13.70;2.40;;;;;;;20.81;66.33;100043.13;107931;1283;25433;-83
2023/07/04 06:55:39;;;;;;;14.70;2.20;;;;;;;21.00;65.70;100035.30;107603;1283;22530;-83
2023/07/04 06:58:11;;;;;;;15.80;1.90;;;;;;;21.10;65.30;100037.81;108053;1282;22540;-82
2023/07/04 07:00:42;;;;;;;26.90;3.40;;;;;;;21.22;65.45;100039.64;107925;1275;22748;-83
2023/07/04 07:03:13;;;;;;;12.90;2.70;;;;;;;21.34;65.14;100039.86;108070;1277;24279;-82
2023/07/04 07:05:44;;;;;;;12.20;2.50;;;;;;;21.46;64.65;100040.16;107993;1277;22589;-82
2023/07/04 07:08:16;;;;;;;10.90;2.50;;;;;;;21.57;64.01;100039.32;108071;1282;22582;-83
2023/07/04 07:10:56;;;;;;;13.60;2.70;;;;;;;21.66;63.27;100036.77;108150;1276;22538;-83
2023/07/04 07:13:28;;;;;;;15.70;2.10;;;;;;;21.73;62.75;100039.39;108142;1283;22734;-83
2023/07/04 07:16:11;;;;;;;13.00;2.30;;;;;;;21.81;62.69;100036.70;107997;1275;22541;-83
2023/07/04 07:18:44;;;;;;;18.20;3.00;;;;;;;21.91;62.52;100031.72;107895;1276;22539;-83
2023/07/04 07:21:18;;;;;;;11.20;1.70;;;;;;;22.01;62.28;100031.41;107995;1277;24249;-83
2023/07/04 07:23:50;;;;;;;11.90;2.10;;;;;;;22.09;60.86;100028.67;108749;1275;22873;-83
2023/07/04 07:26:23;;;;;;;9.60;1.90;;;;;;;22.15;59.69;100029.55;109030;1276;22564;-84
2023/07/04 07:28:55;;;;;;;15.30;2.20;;;;;;;22.21;59.28;100034.35;108987;1275;25900;-84
2023/07/04 07:31:28;;;;;;;12.20;1.90;;;;;;;22.27;58.58;100030.95;108552;1276;22601;-84
2023/07/04 07:33:59;;;;;;;10.30;1.50;;;;;;;22.32;58.32;100030.92;108383;1280;22488;-83
2023/07/04 07:36:32;;;;;;;12.90;1.50;;;;;;;22.40;57.74;100033.51;108171;1276;23090;-84
2023/07/04 07:39:05;;;;;;;10.10;1.50;;;;;;;22.47;56.78;100033.07;108109;1276;22533;-83
2023/07/04 07:41:40;;;;;;;10.90;1.50;;;;;;;22.55;56.33;100031.84;108061;1282;25306;-83
2023/07/04 07:44:11;;;;;;;14.80;1.70;;;;;;;22.63;55.92;100028.67;108072;1276;22576;-83
2023/07/04 07:46:43;;;;;;;12.80;1.70;;;;;;;22.69;55.39;100027.61;108073;1282;22530;-83
2023/07/04 07:49:16;;;;;;;9.50;1.80;;;;;;;22.79;55.03;100028.98;108279;1267;22595;-83
2023/07/04 07:51:47;;;;;;;7.50;1.30;;;;;;;22.85;54.39;100028.15;108185;1281;24196;-83
2023/07/04 07:54:19;;;;;;;8.70;1.90;;;;;;;22.91;54.18;100025.45;108084;1282;22544;-83
2023/07/04 07:56:50;;;;;;;6.30;1.50;;;;;;;22.98;53.30;100024.79;108054;1283;24254;-83
2023/07/04 07:59:21;;;;;;;10.30;1.70;;;;;;;23.04;52.49;100025.90;108171;1280;23294;-84
2023/07/04 08:01:58;;;;;;;10.10;1.70;;;;;;;23.09;52.13;100027.63;108109;1277;24115;-83
2023/07/04 08:04:29;;;;;;;11.30;1.70;;;;;;;23.11;51.21;100030.17;108011;1279;22539;-83
2023/07/04 08:07:02;;;;;;;9.70;1.30;;;;;;;23.12;51.49;100025.70;107847;1275;22468;-83
2023/07/04 08:09:33;;;;;;;7.50;1.60;;;;;;;23.20;51.17;100024.42;107964;1275;22529;-83
2023/07/04 08:12:04;;;;;;;14.90;2.30;;;;;;;23.28;50.46;100021.71;108092;1283;22524;-83
2023/07/04 08:14:35;;;;;;;7.80;1.60;;;;;;;23.31;49.49;100018.23;108093;1272;22663;-83
2023/07/04 08:17:06;;;;;;;10.10;1.80;;;;;;;23.36;49.48;100018.34;108003;1276;22510;-83
2023/07/04 08:19:37;;;;;;;7.90;1.80;;;;;;;23.40;49.12;100020.47;107985;1275;22506;-83
2023/07/04 08:22:08;;;;;;;14.40;2.20;;;;;;;23.44;48.70;100020.79;108060;1275;25431;-80
2023/07/04 08:24:39;;;;;;;8.30;1.90;;;;;;;23.47;48.62;100020.02;107856;1282;22457;-80
2023/07/04 08:27:09;;;;;;;9.50;1.90;;;;;;;23.52;48.88;100021.55;107930;1275;23992;-81
2023/07/04 08:29:40;;;;;;;8.50;1.80;;;;;;;23.61;48.40;100022.10;107950;1280;22556;-81
2023/07/04 08:32:11;;;;;;;10.20;2.00;;;;;;;23.69;47.88;100021.09;107903;1275;24224;-80
2023/07/04 08:34:42;;;;;;;8.10;2.30;;;;;;;23.73;47.28;100020.98;107832;1276;22554;-80
2023/07/04 08:37:13;;;;;;;12.20;2.70;;;;;;;23.77;46.32;100022.23;107998;1275;22566;-81
2023/07/04 08:39:46;;;;;;;14.70;3.20;;;;;;;23.77;45.51;100021.13;107926;1275;22551;-80
2023/07/04 08:42:19;;;;;;;13.50;3.10;;;;;;;23.76;45.35;100022.77;107949;1275;22542;-80
2023/07/04 08:44:52;;;;;;;9.00;2.00;;;;;;;23.81;45.85;100017.65;107999;1282;22599;-80
2023/07/04 08:47:26;;;;;;;10.90;2.50;;;;;;;23.91;45.97;100021.48;107968;1279;22484;-80
2023/07/04 08:50:03;;;;;;;13.70;3.00;;;;;;;23.97;45.04;100018.67;108010;1283;25422;-80
2023/07/04 08:52:38;;;;;;;15.10;3.60;;;;;;;23.98;44.47;100015.83;107859;1283;25263;-80
2023/07/04 08:55:12;;;;;;;15.10;4.20;;;;;;;23.99;44.79;100015.80;107842;1282;22576;-80
2023/07/04 08:57:50;;;;;;;17.70;3.00;;;;;;;24.07;44.93;100017.68;107865;1275;22560;-80
2023/07/04 09:00:28;;;;;;;12.20;2.40;;;;;;;24.14;44.86;100013.53;107939;1277;22580;-80
2023/07/04 09:03:14;;;;;;;11.20;3.50;;;;;;;24.18;44.60;100017.34;107642;1283;22555;-80
2023/07/04 09:06:01;;;;;;;9.70;2.30;;;;;;;24.18;44.47;100016.69;107935;1270;22499;-81
2023/07/04 09:08:46;;;;;;;12.80;2.60;;;;;;;24.28;45.08;100019.41;108001;1280;23639;-81
2023/07/04 09:11:19;;;;;;;9.00;2.30;;;;;;;24.38;44.42;100025.66;108024;1282;22556;-81
2023/07/04 09:13:54;;;;;;;11.80;3.50;;;;;;;24.40;44.15;100028.05;108049;1280;22566;-81
2023/07/04 09:16:43;;;;;;;14.50;4.20;;;;;;;24.41;44.55;100025.98;107924;1275;23562;-81
2023/07/04 09:19:19;;;;;;;15.20;4.80;;;;;;;24.52;44.14;100026.74;108288;1283;22529;-81
2023/07/04 09:21:49;;;;;;;15.90;4.40;;;;;;;24.59;43.70;100024.67;108023;1275;24231;-81
2023/07/04 09:24:20;;;;;;;12.50;4.50;;;;;;;24.66;44.04;100027.05;107978;1277;22658;-80
2023/07/04 09:26:54;;;;;;;16.40;4.30;;;;;;;24.73;43.91;100032.37;107936;1283;25453;-81
2023/07/04 09:29:26;;;;;;;12.70;3.90;;;;;;;24.82;44.04;100030.03;107981;1277;25422;-81
2023/07/04 09:32:00;;;;;;;18.60;3.30;;;;;;;24.92;43.76;100029.98;107903;1275;22596;-81
2023/07/04 09:34:37;;;;;;;12.90;3.40;;;;;;;25.00;44.08;100031.10;107913;1275;25301;-81
2023/07/04 09:37:14;;;;;;;14.00;3.60;;;;;;;25.06;43.27;100030.14;107980;1275;24266;-81
2023/07/04 09:39:50;;;;;;;13.30;3.90;;;;;;;25.02;43.07;100031.80;107990;1275;22498;-81
2023/07/04 09:42:23;;;;;;;14.60;3.50;;;;;;;25.07;44.01;100035.67;107977;1273;22581;-81
2023/07/04 09:44:56;;;;;;;13.30;3.50;;;;;;;25.19;43.79;100034.67;107842;1274;22565;-81
2023/07/04 09:47:30;;;;;;;13.20;3.60;;;;;;;25.25;43.36;100036.41;107874;1279;22634;-81
2023/07/04 09:50:15;;;;;;;12.20;3.30;;;;;;;25.32;43.32;100045.55;107632;1282;22596;-81
2023/07/04 09:52:46;;;;;;;11.60;3.40;;;;;;;25.34;42.73;100043.56;107872;1280;25401;-81
2023/07/04 09:55:25;;;;;;;13.70;3.30;;;;;;;25.31;42.70;100042.98;108116;1282;22608;-81
2023/07/04 09:58:20;;;;;;;13.30;3.00;;;;;;;25.29;42.91;100044.95;108019;1277;22629;-80
2023/07/04 10:01:08;;;;;;;11.20;2.50;;;;;;;25.26;42.98;100046.27;108230;1260;22523;-82
2023/07/04 10:03:41;;;;;;;9.70;2.50;;;;;;;25.26;42.78;100048.02;108077;1275;22538;-83
2023/07/04 10:06:13;;;;;;;11.90;2.80;;;;;;;25.30;42.77;100046.35;108160;1282;25488;-82
2023/07/04 10:08:55;;;;;;;13.40;3.70;;;;;;;25.38;43.07;100043.87;108003;1271;22539;-83
2023/07/04 10:11:34;;;;;;;12.90;2.90;;;;;;;25.47;42.86;100047.54;108045;1282;22589;-83
2023/07/04 10:14:07;;;;;;;12.80;3.50;;;;;;;25.47;42.65;100045.67;108201;1280;23499;-83
2023/07/04 10:16:45;;;;;;;15.50;3.50;;;;;;;25.39;42.15;100048.30;108152;1275;22498;-83
2023/07/04 10:19:19;;;;;;;11.90;2.90;;;;;;;25.34;42.15;100046.54;108078;1274;23376;-83
2023/07/04 10:21:52;;;;;;;9.90;3.10;;;;;;;25.29;41.94;100045.86;107965;1275;22546;-83
2023/07/04 10:24:25;;;;;;;13.10;3.30;;;;;;;25.29;42.30;100042.09;107981;1271;24330;-83
2023/07/04 10:27:00;;;;;;;13.40;2.90;;;;;;;25.36;42.36;100037.77;107926;1276;22556;-82
2023/07/04 10:29:36;;;;;;;12.90;3.50;;;;;;;25.47;42.16;100032.83;107875;1275;22546;-83
2023/07/04 10:32:13;;;;;;;15.70;3.50;;;;;;;25.56;41.51;100037.32;107986;1282;22530;-83
2023/07/04 10:34:48;;;;;;;11.10;3.60;;;;;;;25.63;41.91;100036.29;107893;1277;22550;-83
2023/07/04 10:37:27;;;;;;;14.50;3.60;;;;;;;25.72;41.65;100030.43;108018;1275;22571;-83
2023/07/04 10:40:02;;;;;;;11.90;3.20;;;;;;;25.80;41.75;100023.63;109950;1275;22532;-83
2023/07/04 10:42:39;;;;;;;12.00;2.90;;;;;;;25.89;41.64;100033.30;109938;1282;22810;-83
2023/07/04 10:45:14;;;;;;;12.20;3.00;;;;;;;25.94;41.00;100032.29;109941;1277;23571;-83
2023/07/04 10:47:49;;;;;;;11.70;3.20;;;;;;;25.95;40.56;100033.47;108105;1282;22563;-83
2023/07/04 10:50:25;;;;;;;8.90;2.20;;;;;;;25.93;40.33;100030.32;107984;1283;22604;-83
2023/07/04 10:52:56;;;;;;;13.80;3.50;;;;;;;25.85;39.86;100033.70;108082;1275;22641;-83
2023/07/04 10:55:35;;;;;;;13.50;3.40;;;;;;;25.84;40.23;100034.02;108343;1271;22535;-83
2023/07/04 10:58:12;;;;;;;13.10;3.60;;;;;;;25.91;40.30;100033.32;108344;1279;22589;-83
2023/07/04 11:00:48;;;;;;;11.10;3.20;;;;;;;25.99;39.99;100031.09;108157;1280;26662;-83
2023/07/04 11:03:28;;;;;;;10.80;3.00;;;;;;;26.00;39.36;100031.36;107957;1282;22535;-83
2023/07/04 11:05:59;;;;;;;;;;;;;;;25.91;39.37;100032.15;108081;1279;22515;-83
2023/07/04 11:08:34;;;;;;;9.00;2.20;;;;;;;25.79;39.65;100036.31;108000;1282;22972;-83
2023/07/04 11:11:11;;;;;;;7.90;2.60;;;;;;;25.79;39.80;100048.02;108010;1276;22530;-83
2023/07/04 11:13:49;;;;;;;11.50;2.70;;;;;;;25.90;39.69;100043.22;107997;1275;22553;-83
2023/07/04 11:16:28;;;;;;;7.90;2.20;;;;;;;26.01;39.66;100034.98;108048;1272;22543;-83
2023/07/04 11:19:05;;;;;;;12.20;2.90;;;;;;;26.14;39.91;100035.21;107934;1277;22666;-83
2023/07/04 11:21:55;;;;;;;8.20;2.50;;;;;;;26.28;40.08;100032.23;109921;1280;22087;-83
2023/07/04 11:24:32;;;;;;;11.70;3.20;;;;;;;26.42;39.58;100030.05;109950;1283;22785;-83
2023/07/04 11:27:10;;;;;;;14.80;3.90;;;;;;;26.50;39.23;100031.83;109912;1282;22219;-83
2023/07/04 11:29:54;;;;;;;14.80;4.10;;;;;;;26.58;39.26;100027.39;109958;1283;22799;-83
2023/07/04 11:32:34;;;;;;;11.30;3.20;;;;;;;26.57;38.76;100027.06;109933;1277;22867;-83
2023/07/04 11:35:17;;;;;;;13.10;3.50;;;;;;;26.49;39.09;100026.54;109952;1282;22240;-83
2023/07/04 11:37:53;;;;;;;10.20;3.50;;;;;;;26.43;38.78;100024.37;109916;1280;22169;-84
2023/07/04 11:40:28;;;;;;;11.90;3.40;;;;;;;26.33;38.71;100026.33;109918;1276;22199;-84
2023/07/04 11:43:03;;;;;;;13.80;4.90;;;;;;;26.22;38.20;100024.84;109744;1282;22555;-83
2023/07/04 11:45:39;;;;;;;12.40;4.70;;;;;;;26.13;38.23;100024.94;107951;1276;22534;-83
2023/07/04 11:48:16;;;;;;;14.10;4.10;;;;;;;26.05;38.39;100021.29;108001;1276;22509;-83